createdAt,value
2023-02-23T00:04:47.026Z,22.4
2023-02-23T00:10:40.508Z,23.7
2023-02-23T00:16:31.862Z,23.3
2023-02-23T00:22:24.806Z,22.3
2023-02-23T00:28:04.436Z,22.8
2023-02-23T00:34:00.459Z,23.9
2023-02-23T00:39:52.538Z,22.8
2023-02-23T00:45:46.792Z,21.9
2023-02-23T00:51:39.932Z,21.4
2023-02-23T00:57:32.456Z,21.2
2023-02-23T01:03:25.680Z,21.3
2023-02-23T01:09:18.549Z,22.6
2023-02-23T01:15:11.918Z,23.6
2023-02-23T01:21:05.600Z,23.1
2023-02-23T01:26:43.232Z,22.1
2023-02-23T01:32:38.364Z,21.4
2023-02-23T01:38:32.027Z,21.2
2023-02-23T01:44:24.189Z,21.1
2023-02-23T01:50:01.758Z,22
2023-02-23T01:55:55.360Z,23
2023-02-23T02:01:32.326Z,23.4
2023-02-23T02:07:25.320Z,22.2
2023-02-23T02:13:19.626Z,21.5
2023-02-23T02:24:34.200Z,21.1
2023-02-23T02:30:28.026Z,21.3
2023-02-23T02:36:21.696Z,22.3
2023-02-23T02:42:14.589Z,21.2
2023-02-23T02:47:53.245Z,22.3
2023-02-23T02:53:30.978Z,23.5
2023-02-23T02:59:08.228Z,22.8
2023-02-23T03:04:45.997Z,21.9
2023-02-23T03:10:06.892Z,21.4
2023-02-23T03:15:44.780Z,21.1
2023-02-23T03:21:23.275Z,21
2023-02-23T03:27:00.538Z,21.6
2023-02-23T03:32:21.774Z,22.8
2023-02-23T03:37:28.542Z,23.4
2023-02-23T03:43:06.507Z,22.4
2023-02-23T03:48:44.698Z,21.7
2023-02-23T03:54:38.916Z,21.2
2023-02-23T04:00:16.775Z,21
2023-02-23T04:05:53.582Z,20.9
2023-02-23T04:11:16.422Z,21.8
2023-02-23T04:16:38.474Z,23
2023-02-23T04:22:15.069Z,23.6
2023-02-23T04:27:37.237Z,22.3
2023-02-23T04:33:31.716Z,22.1
2023-02-23T04:39:23.537Z,23.1
2023-02-23T04:44:45.873Z,22.8
2023-02-23T04:50:23.456Z,22.1
2023-02-23T04:56:03.808Z,21.4
2023-02-23T05:01:57.924Z,21.3
2023-02-23T05:07:52.389Z,21
2023-02-23T05:13:44.005Z,21.4
2023-02-23T05:19:38.144Z,22.5
2023-02-23T05:25:31.185Z,21.3
2023-02-23T05:31:24.393Z,22.4
2023-02-23T05:37:18.916Z,23.8
2023-02-23T05:43:11.346Z,23
2023-02-23T05:48:48.942Z,22.1
2023-02-23T05:54:27.234Z,21.3
2023-02-23T06:05:56.635Z,21
2023-02-23T06:11:50.741Z,21.8
2023-02-23T06:17:43.292Z,22.8
2023-02-23T06:23:34.676Z,23.2
2023-02-23T06:29:30.033Z,22.3
2023-02-23T06:35:23.973Z,21.8
2023-02-23T06:41:15.601Z,21.4
2023-02-23T06:47:08.363Z,21.2
2023-02-23T06:53:00.772Z,21.5
2023-02-23T06:58:40.628Z,23
2023-02-23T07:04:34.423Z,23.8
2023-02-23T07:10:27.189Z,22.8
2023-02-23T07:16:24.168Z,22.4
2023-02-23T07:22:17.396Z,23.4
2023-02-23T07:28:10.098Z,23.1
2023-02-23T07:34:04.032Z,22.3
2023-02-23T07:39:57.656Z,21.8
2023-02-23T07:45:51.358Z,21.6
2023-02-23T07:51:44.237Z,21.4
2023-02-23T07:57:39.621Z,22.4
2023-02-23T08:03:32.310Z,23.3
2023-02-23T08:09:24.660Z,23.3
2023-02-23T08:15:19.843Z,22.4
2023-02-23T08:21:12.464Z,22.6
2023-02-23T08:27:16.782Z,23.6
2023-02-23T08:33:11.910Z,22.9
2023-02-23T08:39:04.666Z,22.4
2023-02-23T08:44:57.204Z,23.1
2023-02-23T08:50:50.952Z,23.7
2023-02-23T08:56:27.367Z,22.9
2023-02-23T09:02:19.258Z,22.3
2023-02-23T09:08:12.830Z,22.8
2023-02-23T09:14:05.550Z,23.9
2023-02-23T09:19:58.098Z,22.8
2023-02-23T09:25:36.426Z,22.3
2023-02-23T09:31:17.231Z,22
2023-02-23T09:36:54.191Z,23.1
2023-02-23T09:42:59.560Z,22.7
2023-02-23T09:48:36.964Z,22.4
2023-02-23T09:54:30.133Z,23.4
2023-02-23T10:00:23.838Z,23.3
2023-02-23T10:06:03.309Z,22.7
2023-02-23T10:11:58.428Z,22.4
2023-02-23T10:17:38.029Z,24.1
2023-02-23T10:23:47.769Z,23.3
2023-02-23T10:29:39.890Z,22.6
2023-02-23T10:35:19.287Z,22.8
2023-02-23T10:41:17.149Z,24.6
2023-02-23T10:47:01.434Z,23
2023-02-23T10:52:42.733Z,21.8
2023-02-23T10:58:37.877Z,22.1
2023-02-23T11:04:55.629Z,23.4
2023-02-23T11:11:05.955Z,22.7
2023-02-23T11:17:12.508Z,22.4
2023-02-23T11:23:12.993Z,22.1
2023-02-23T11:29:08.287Z,21.9
2023-02-23T11:35:01.116Z,21.9
2023-02-23T11:40:53.999Z,21.6
2023-02-23T11:46:51.994Z,21.6
2023-02-23T11:52:44.779Z,21.5
2023-02-23T11:58:21.618Z,21.3
2023-02-23T12:04:16.521Z,21.3
2023-02-23T12:15:47.594Z,21.1
2023-02-23T12:21:41.014Z,21
2023-02-23T12:27:33.536Z,20.9
2023-02-23T12:33:38.533Z,20.8
2023-02-23T12:39:32.082Z,20.6
2023-02-23T12:45:24.741Z,20.6
2023-02-23T12:51:01.511Z,20.3
2023-02-23T12:56:55.881Z,20.1
2023-02-23T13:02:51.072Z,20.1
2023-02-23T13:08:50.861Z,19.9
2023-02-23T13:14:45.027Z,19.9
2023-02-23T13:20:22.032Z,19.8
2023-02-23T13:25:59.320Z,19.8
2023-02-23T13:31:56.815Z,19.6
2023-02-23T13:37:41.421Z,19.6
2023-02-23T13:43:47.070Z,19.5
2023-02-23T13:49:47.687Z,19.4
2023-02-23T13:55:48.946Z,19.4
2023-02-23T14:01:42.969Z,19.3
2023-02-23T14:07:21.931Z,19.3
2023-02-23T14:13:01.294Z,19.3
2023-02-23T14:18:56.722Z,19.2
2023-02-23T14:25:00.276Z,19.2
2023-02-23T14:31:10.241Z,19.2
2023-02-23T14:36:56.901Z,19.2
2023-02-23T14:43:01.701Z,19.1
2023-02-23T14:49:07.361Z,19.1
2023-02-23T14:54:56.880Z,19
2023-02-23T15:00:57.213Z,18.9
2023-02-23T15:07:07.148Z,19
2023-02-23T15:12:59.608Z,19.1
2023-02-23T15:19:00.494Z,19.1
2023-02-23T15:25:03.641Z,19.2
2023-02-23T15:31:10.478Z,19.2
2023-02-23T15:37:05.614Z,19.1
2023-02-23T15:43:30.632Z,19.1
2023-02-23T15:49:32.081Z,19.2
2023-02-23T15:55:23.897Z,19.2
2023-02-23T16:01:25.288Z,19
2023-02-23T16:07:25.926Z,19.1
2023-02-23T16:13:20.504Z,19.1
2023-02-23T16:19:23.295Z,19.1
2023-02-23T16:25:23.997Z,19.1
2023-02-23T16:30:46.255Z,19.1
2023-02-23T16:36:24.441Z,19.1
2023-02-23T16:42:16.696Z,19.1
2023-02-23T16:48:19.248Z,18.9
2023-02-23T16:54:16.984Z,18.8
2023-02-23T17:00:10.401Z,18.8
2023-02-23T17:12:00.477Z,18.9
2023-02-23T17:17:53.568Z,18.9
2023-02-23T17:23:47.602Z,18.9
2023-02-23T17:29:40.676Z,18.9
2023-02-23T17:35:37.760Z,18.9
2023-02-23T17:41:30.851Z,18.9
2023-02-23T17:47:25.170Z,18.9
2023-02-23T17:53:18.043Z,19
2023-02-23T17:59:12.953Z,18.9
2023-02-23T18:05:07.640Z,18.9
2023-02-23T18:10:44.958Z,18.9
2023-02-23T18:16:38.629Z,18.9
2023-02-23T18:22:33.528Z,18.9
2023-02-23T18:34:05.179Z,18.8
2023-02-23T18:39:59.206Z,18.9
2023-02-23T18:45:36.029Z,18.9
2023-02-23T18:51:14.175Z,18.9
2023-02-23T18:57:06.839Z,18.9
2023-02-23T19:03:02.858Z,18.9
2023-02-23T19:08:42.170Z,18.9
2023-02-23T19:14:48.655Z,18.9
2023-02-23T19:20:42.276Z,18.9
2023-02-23T19:26:20.724Z,18.9
2023-02-23T19:32:14.661Z,18.9
2023-02-23T19:38:08.041Z,18.9
2023-02-23T19:44:00.791Z,18.9
2023-02-23T19:49:53.788Z,18.9
2023-02-23T19:55:45.329Z,18.9
2023-02-23T20:01:38.480Z,18.8
2023-02-23T20:07:32.570Z,18.8
2023-02-23T20:13:24.912Z,18.8
2023-02-23T20:19:18.622Z,18.8
2023-02-23T20:25:10.897Z,18.8
2023-02-23T20:31:04.402Z,18.8
2023-02-23T20:36:58.977Z,18.8
2023-02-23T20:42:52.989Z,19.6
2023-02-23T20:48:45.114Z,22.2
2023-02-23T20:54:39.350Z,23.3
2023-02-23T21:00:17.420Z,23.5
2023-02-23T21:05:56.282Z,23.6
2023-02-23T21:11:49.720Z,22.8
2023-02-23T21:17:27.472Z,22.9
2023-02-23T21:23:22.448Z,23.1
2023-02-23T21:28:59.697Z,22.6
2023-02-23T21:34:41.830Z,23.3
2023-02-23T21:40:34.725Z,22.1
2023-02-23T21:46:28.164Z,22.9
2023-02-23T21:52:21.363Z,23.1
2023-02-23T21:58:20.955Z,21.9
2023-02-23T22:04:15.119Z,22.9
2023-02-23T22:09:51.969Z,23
2023-02-23T22:15:43.798Z,22.6
2023-02-23T22:21:38.629Z,23.3
2023-02-23T22:27:31.087Z,24.5
2023-02-23T22:33:25.121Z,22.3
2023-02-23T22:39:01.832Z,22.2
2023-02-23T22:44:54.876Z,23.7
2023-02-23T22:50:47.392Z,23.8
2023-02-23T22:57:09.471Z,22.6
2023-02-23T23:03:02.261Z,22.9
2023-02-23T23:08:56.017Z,24.4
2023-02-23T23:14:49.045Z,23.3
2023-02-23T23:21:01.881Z,22.4
2023-02-23T23:26:54.553Z,23.3
2023-02-23T23:32:48.612Z,24.3
2023-02-23T23:38:41.986Z,23.1
2023-02-23T23:44:34.059Z,22.5
2023-02-23T23:50:27.584Z,23.4
2023-02-23T23:56:20.956Z,23.9
